createdAt,value
2018-10-11T00:00:43.681Z,1005.04
2018-10-11T00:01:43.661Z,1005.08
2018-10-11T00:02:43.651Z,1005.10
2018-10-11T00:03:43.640Z,1005.05
2018-10-11T00:04:43.626Z,1005.10
2018-10-11T00:05:43.635Z,1005.15
2018-10-11T00:06:43.609Z,1005.23
2018-10-11T00:07:43.596Z,1005.20
2018-10-11T00:08:43.586Z,1005.20
2018-10-11T00:09:43.579Z,1005.07
2018-10-11T00:10:43.577Z,1005.16
2018-10-11T00:11:43.608Z,1005.09
2018-10-11T00:12:43.543Z,1005.12
2018-10-11T00:13:43.530Z,1005.05
2018-10-11T00:14:43.518Z,1005.04
2018-10-11T00:15:43.532Z,1005.11
2018-10-11T00:16:43.498Z,1005.09
2018-10-11T00:17:43.489Z,1005.12
2018-10-11T00:18:43.473Z,1005.13
2018-10-11T00:19:43.465Z,1005.12
2018-10-11T00:20:43.470Z,1005.15
2018-10-11T00:21:43.439Z,1005.11
2018-10-11T00:22:43.434Z,1005.15
2018-10-11T00:23:43.417Z,1005.03
2018-10-11T00:24:43.405Z,1005.11
2018-10-11T00:25:43.416Z,1005.11
2018-10-11T00:26:43.390Z,1005.09
2018-10-11T00:27:43.378Z,1005.09
2018-10-11T00:28:43.369Z,1005.07
2018-10-11T00:29:43.350Z,1005.06
2018-10-11T00:30:43.427Z,1005.03
2018-10-11T00:31:43.331Z,1005.06
2018-10-11T00:32:43.333Z,1005.09
2018-10-11T00:33:43.309Z,1005.09
2018-10-11T00:34:43.294Z,1005.12
2018-10-11T00:35:43.300Z,1005.11
2018-10-11T00:36:43.274Z,1005.09
2018-10-11T00:37:43.260Z,1005.11
2018-10-11T00:38:43.253Z,1005.09
2018-10-11T00:39:43.239Z,1005.12
2018-10-11T00:40:43.246Z,1005.09
2018-10-11T00:41:43.216Z,1005.10
2018-10-11T00:42:43.205Z,1005.05
2018-10-11T00:43:43.195Z,1005.06
2018-10-11T00:44:43.182Z,1005.09
2018-10-11T00:45:43.207Z,1005.04
2018-10-11T00:46:43.165Z,1005.11
2018-10-11T00:47:43.153Z,1005.07
2018-10-11T00:48:43.138Z,1005.01
2018-10-11T00:49:43.129Z,1005.09
2018-10-11T00:50:43.138Z,1005.02
2018-10-11T00:51:43.125Z,1005.01
2018-10-11T00:52:43.094Z,1005.04
2018-10-11T00:53:43.086Z,1005.00
2018-10-11T00:54:43.071Z,1005.03
2018-10-11T00:55:43.060Z,1005.08
2018-10-11T00:56:43.070Z,1005.06
2018-10-11T00:57:43.046Z,1005.02
2018-10-11T00:58:43.031Z,1005.09
2018-10-11T00:59:43.021Z,1005.05
2018-10-11T01:00:43.004Z,1005.04
2018-10-11T01:01:43.043Z,1004.97
2018-10-11T01:02:42.984Z,1004.94
2018-10-11T01:03:42.978Z,1004.95
2018-10-11T01:04:42.960Z,1004.92
2018-10-11T01:05:42.949Z,1004.93
2018-10-11T01:06:42.965Z,1004.88
2018-10-11T01:07:42.928Z,1004.89
2018-10-11T01:08:42.917Z,1004.87
2018-10-11T01:09:42.906Z,1004.83
2018-10-11T01:10:42.897Z,1004.85
2018-10-11T01:11:42.933Z,1004.75
2018-10-11T01:12:42.889Z,1004.79
2018-10-11T01:13:42.862Z,1004.74
2018-10-11T01:14:42.849Z,1004.76
2018-10-11T01:15:42.843Z,1004.68
2018-10-11T01:16:42.828Z,1004.62
2018-10-11T01:17:42.837Z,1004.64
2018-10-11T01:18:42.824Z,1004.66
2018-10-11T01:19:42.795Z,1004.66
2018-10-11T01:20:42.785Z,1004.66
2018-10-11T01:21:42.770Z,1004.60
2018-10-11T01:22:42.784Z,1004.66
2018-10-11T01:23:42.843Z,1004.65
2018-10-11T01:24:42.744Z,1004.66
2018-10-11T01:25:42.733Z,1004.75
2018-10-11T01:26:42.721Z,1004.70
2018-10-11T01:27:42.740Z,1004.73
2018-10-11T01:28:42.693Z,1004.73
2018-10-11T01:29:42.763Z,1004.68
2018-10-11T01:30:42.673Z,1004.71
2018-10-11T01:31:42.660Z,1004.70
2018-10-11T01:32:42.649Z,1004.66
2018-10-11T01:33:42.656Z,1004.67
2018-10-11T01:34:42.628Z,1004.66
2018-10-11T01:35:42.616Z,1004.67
2018-10-11T01:36:42.612Z,1004.63
2018-10-11T01:37:42.597Z,1004.68
2018-10-11T01:38:42.634Z,1004.69
2018-10-11T01:39:42.570Z,1004.67
2018-10-11T01:40:42.562Z,1004.68
2018-10-11T01:41:42.548Z,1004.75
2018-10-11T01:42:42.536Z,1004.75
2018-10-11T01:43:42.548Z,1004.79
2018-10-11T01:44:42.524Z,1004.76
2018-10-11T01:45:42.504Z,1004.79
2018-10-11T01:46:42.495Z,1004.81
2018-10-11T01:47:42.483Z,1004.81
2018-10-11T01:48:42.505Z,1004.84
2018-10-11T01:49:42.463Z,1004.82
2018-10-11T01:50:42.455Z,1004.79
2018-10-11T01:51:42.492Z,1004.78
2018-10-11T01:52:42.428Z,1004.77
2018-10-11T01:53:42.424Z,1004.76
2018-10-11T01:54:42.427Z,1004.75
2018-10-11T01:55:42.398Z,1004.73
2018-10-11T01:56:42.414Z,1004.75
2018-10-11T01:57:42.374Z,1004.71
2018-10-11T01:58:42.358Z,1004.68
2018-10-11T01:59:42.366Z,1004.68
2018-10-11T02:00:42.338Z,1004.67
2018-10-11T02:01:42.335Z,1004.69
2018-10-11T02:02:42.314Z,1004.65
2018-10-11T02:03:42.306Z,1004.66
2018-10-11T02:04:42.309Z,1004.60
2018-10-11T02:05:42.280Z,1004.61
2018-10-11T02:06:42.269Z,1004.61
2018-10-11T02:07:42.265Z,1004.62
2018-10-11T02:08:42.251Z,1004.65
2018-10-11T02:09:42.273Z,1004.60
2018-10-11T02:10:42.227Z,1004.58
2018-10-11T02:11:42.214Z,1004.61
2018-10-11T02:12:42.202Z,1004.63
2018-10-11T02:13:42.196Z,1004.61
2018-10-11T02:14:42.215Z,1004.65
2018-10-11T02:15:42.192Z,1004.69
2018-10-11T02:16:42.158Z,1004.61
2018-10-11T02:17:42.148Z,1004.65
2018-10-11T02:18:42.138Z,1004.60
2018-10-11T02:19:42.129Z,1004.59
2018-10-11T02:20:42.135Z,1004.55
2018-10-11T02:21:42.103Z,1004.52
2018-10-11T02:22:42.091Z,1004.51
2018-10-11T02:23:42.083Z,1004.55
2018-10-11T02:24:42.078Z,1004.50
2018-10-11T02:25:42.083Z,1004.50
2018-10-11T02:26:42.048Z,1004.52
2018-10-11T02:27:42.047Z,1004.54
2018-10-11T02:28:42.026Z,1004.45
2018-10-11T02:29:42.015Z,1004.45
2018-10-11T02:30:42.035Z,1004.48
2018-10-11T02:31:42.004Z,1004.41
2018-10-11T02:32:41.982Z,1004.47
2018-10-11T02:33:41.970Z,1004.44
2018-10-11T02:34:41.961Z,1004.46
2018-10-11T02:35:41.952Z,1004.46
2018-10-11T02:36:41.968Z,1004.44
2018-10-11T02:37:41.935Z,1004.45
2018-10-11T02:38:41.918Z,1004.39
2018-10-11T02:39:41.906Z,1004.39
2018-10-11T02:40:41.897Z,1004.32
2018-10-11T02:41:41.905Z,1004.37
2018-10-11T02:42:41.875Z,1004.33
2018-10-11T02:43:41.865Z,1004.29
2018-10-11T02:44:41.850Z,1004.29
2018-10-11T02:45:41.840Z,1004.26
2018-10-11T02:46:41.850Z,1004.28
2018-10-11T02:47:41.819Z,1004.33
2018-10-11T02:48:41.809Z,1004.28
2018-10-11T02:49:41.796Z,1004.24
2018-10-11T02:50:41.786Z,1004.24
2018-10-11T02:51:41.804Z,1004.20
2018-10-11T02:52:41.768Z,1004.23
2018-10-11T02:53:41.753Z,1004.23
2018-10-11T02:54:41.748Z,1004.19
2018-10-11T02:55:41.734Z,1004.14
2018-10-11T02:56:41.720Z,1004.10
2018-10-11T02:57:41.733Z,1004.15
2018-10-11T02:58:41.700Z,1004.12
2018-10-11T02:59:41.692Z,1004.17
2018-10-11T03:00:41.679Z,1004.10
2018-10-11T03:01:41.670Z,1004.07
2018-10-11T03:02:41.674Z,1004.13
2018-10-11T03:03:41.644Z,1004.13
2018-10-11T03:04:41.635Z,1004.10
2018-10-11T03:05:41.625Z,1004.12
2018-10-11T03:06:41.619Z,1004.10
2018-10-11T03:07:41.628Z,1004.14
2018-10-11T03:08:41.589Z,1004.06
2018-10-11T03:09:41.581Z,1004.05
2018-10-11T03:10:41.568Z,1004.02
2018-10-11T03:11:41.561Z,1004.01
2018-10-11T03:12:41.570Z,1004.00
2018-10-11T03:13:41.544Z,1004.04
2018-10-11T03:14:41.524Z,1003.99
2018-10-11T03:15:41.520Z,1003.99
2018-10-11T03:16:41.508Z,1003.99
2018-10-11T03:17:41.520Z,1003.92
2018-10-11T03:18:41.491Z,1003.93
2018-10-11T03:19:41.469Z,1003.92
2018-10-11T03:20:41.458Z,1003.90
2018-10-11T03:21:41.449Z,1003.93
2018-10-11T03:22:41.437Z,1003.87
2018-10-11T03:23:41.447Z,1003.82
2018-10-11T03:24:41.418Z,1003.90
2018-10-11T03:25:41.404Z,1003.94
2018-10-11T03:26:41.392Z,1003.89
2018-10-11T03:27:41.383Z,1003.85
2018-10-11T03:28:41.392Z,1003.89
2018-10-11T03:29:41.372Z,1003.89
2018-10-11T03:30:41.360Z,1003.83
2018-10-11T03:31:41.343Z,1003.84
2018-10-11T03:32:41.335Z,1003.72
2018-10-11T03:33:41.337Z,1003.74
2018-10-11T03:34:41.307Z,1003.75
2018-10-11T03:35:41.303Z,1003.71
2018-10-11T03:36:41.283Z,1003.73
2018-10-11T03:37:41.273Z,1003.76
2018-10-11T03:38:41.290Z,1003.73
2018-10-11T03:39:41.251Z,1003.70
2018-10-11T03:40:41.240Z,1003.66
2018-10-11T03:41:41.232Z,1003.62
2018-10-11T03:42:41.217Z,1003.62
2018-10-11T03:43:41.226Z,1003.67
2018-10-11T03:44:41.214Z,1003.62
2018-10-11T03:45:41.191Z,1003.64
2018-10-11T03:46:41.261Z,1003.67
2018-10-11T03:47:41.167Z,1003.60
2018-10-11T03:48:41.155Z,1003.65
2018-10-11T03:49:41.170Z,1003.62
2018-10-11T03:50:41.130Z,1003.67
2018-10-11T03:51:41.120Z,1003.67
2018-10-11T03:52:41.113Z,1003.67
2018-10-11T03:53:41.105Z,1003.68
2018-10-11T03:54:41.110Z,1003.70
2018-10-11T03:55:41.078Z,1003.71
2018-10-11T03:56:41.066Z,1003.71
2018-10-11T03:57:41.061Z,1003.78
2018-10-11T03:58:41.046Z,1003.76
2018-10-11T03:59:41.064Z,1003.77
2018-10-11T04:00:41.025Z,1003.78
2018-10-11T04:01:41.011Z,1003.79
2018-10-11T04:02:41.002Z,1003.81
2018-10-11T04:03:40.993Z,1003.79
2018-10-11T04:04:40.983Z,1003.80
2018-10-11T04:05:40.993Z,1003.81
2018-10-11T04:06:40.959Z,1003.80
2018-10-11T04:07:41.081Z,1003.77
2018-10-11T04:08:40.934Z,1003.76
2018-10-11T04:09:40.981Z,1003.75
2018-10-11T04:10:40.938Z,1003.66
2018-10-11T04:11:40.902Z,1003.63
2018-10-11T04:12:40.891Z,1003.64
2018-10-11T04:13:40.883Z,1003.59
2018-10-11T04:14:40.870Z,1003.58
2018-10-11T04:15:40.931Z,1003.65
2018-10-11T04:16:40.848Z,1003.64
2018-10-11T04:17:40.840Z,1003.64
2018-10-11T04:18:40.824Z,1003.65
2018-10-11T04:19:40.817Z,1003.65
2018-10-11T04:20:40.835Z,1003.65
2018-10-11T04:21:40.796Z,1003.74
2018-10-11T04:22:40.781Z,1003.80
2018-10-11T04:23:40.773Z,1003.73
2018-10-11T04:24:40.763Z,1003.76
2018-10-11T04:25:40.749Z,1003.80
2018-10-11T04:26:40.755Z,1003.78
2018-10-11T04:27:40.767Z,1003.81
2018-10-11T04:28:40.721Z,1003.79
2018-10-11T04:29:40.708Z,1003.84
2018-10-11T04:30:40.695Z,1003.79
2018-10-11T04:31:40.700Z,1003.85
2018-10-11T04:32:41.285Z,1003.88
2018-10-11T04:33:40.665Z,1003.87
2018-10-11T04:34:40.661Z,1003.82
2018-10-11T04:35:40.644Z,1003.83
2018-10-11T04:36:40.655Z,1003.87
2018-10-11T04:37:40.623Z,1003.85
2018-10-11T04:38:40.611Z,1003.78
2018-10-11T04:39:40.597Z,1003.81
2018-10-11T04:40:40.590Z,1003.77
2018-10-11T04:41:40.608Z,1003.75
2018-10-11T04:42:40.587Z,1003.72
2018-10-11T04:43:40.553Z,1003.74
2018-10-11T04:44:40.547Z,1003.72
2018-10-11T04:45:40.531Z,1003.73
2018-10-11T04:46:40.554Z,1003.71
2018-10-11T04:47:40.513Z,1003.74
2018-10-11T04:48:40.498Z,1003.74
2018-10-11T04:49:40.490Z,1003.70
2018-10-11T04:50:40.477Z,1003.70
2018-10-11T04:51:40.469Z,1003.73
2018-10-11T04:52:40.475Z,1003.82
2018-10-11T04:53:40.543Z,1003.79
2018-10-11T04:54:40.433Z,1003.80
2018-10-11T04:55:40.424Z,1003.76
2018-10-11T04:56:40.416Z,1003.71
2018-10-11T04:57:40.419Z,1003.71
2018-10-11T04:58:40.391Z,1003.74
2018-10-11T04:59:40.387Z,1003.74
2018-10-11T05:00:40.369Z,1003.71
2018-10-11T05:01:40.356Z,1003.68
2018-10-11T05:02:40.371Z,1003.73
2018-10-11T05:03:40.343Z,1003.77
2018-10-11T05:04:40.324Z,1003.81
2018-10-11T05:05:40.312Z,1003.77
2018-10-11T05:06:40.304Z,1003.76
2018-10-11T05:07:40.330Z,1003.78
2018-10-11T05:08:40.282Z,1003.76
2018-10-11T05:09:40.287Z,1003.83
2018-10-11T05:10:40.264Z,1003.85
2018-10-11T05:11:40.249Z,1003.84
2018-10-11T05:12:40.237Z,1003.93
2018-10-11T05:13:40.242Z,1003.86
2018-10-11T05:14:40.218Z,1003.82
2018-10-11T05:15:40.205Z,1003.90
2018-10-11T05:16:40.193Z,1003.84
2018-10-11T05:17:40.185Z,1003.80
2018-10-11T05:18:40.201Z,1003.79
2018-10-11T05:19:40.162Z,1003.81
2018-10-11T05:20:40.149Z,1003.74
2018-10-11T05:21:40.139Z,1003.82
2018-10-11T05:22:40.128Z,1003.76
2018-10-11T05:23:40.148Z,1003.79
2018-10-11T05:24:40.107Z,1003.79
2018-10-11T05:25:40.097Z,1003.76
2018-10-11T05:26:40.091Z,1003.78
2018-10-11T05:27:40.076Z,1003.75
2018-10-11T05:28:40.082Z,1003.85
2018-10-11T05:29:40.071Z,1003.81
2018-10-11T05:30:40.041Z,1003.78
2018-10-11T05:31:40.034Z,1003.79
2018-10-11T05:32:40.022Z,1003.72
2018-10-11T05:33:40.007Z,1003.74
2018-10-11T05:34:40.020Z,1003.72
2018-10-11T05:35:39.987Z,1003.76
2018-10-11T05:36:39.975Z,1003.76
2018-10-11T05:37:39.963Z,1003.71
2018-10-11T05:38:39.956Z,1003.73
2018-10-11T05:39:39.963Z,1003.76
2018-10-11T05:40:39.933Z,1003.70
2018-10-11T05:41:39.924Z,1003.73
2018-10-11T05:42:39.911Z,1003.74
2018-10-11T05:43:39.899Z,1003.76
2018-10-11T05:44:39.918Z,1003.73
2018-10-11T05:45:39.878Z,1003.74
2018-10-11T05:46:39.866Z,1003.77
2018-10-11T05:47:39.853Z,1003.78
2018-10-11T05:48:39.845Z,1003.76
2018-10-11T05:49:39.835Z,1003.76
2018-10-11T05:50:39.840Z,1003.80
2018-10-11T05:51:39.825Z,1003.74
2018-10-11T05:52:39.800Z,1003.71
2018-10-11T05:53:39.790Z,1003.70
2018-10-11T05:54:39.778Z,1003.80
2018-10-11T05:55:39.784Z,1003.80
2018-10-11T05:56:39.863Z,1003.76
2018-10-11T05:57:39.746Z,1003.81
2018-10-11T05:58:39.734Z,1003.84
2018-10-11T05:59:39.726Z,1003.78
2018-10-11T06:00:39.743Z,1003.77
2018-10-11T06:01:39.701Z,1003.80
2018-10-11T06:02:39.692Z,1003.83
2018-10-11T06:03:39.688Z,1003.84
2018-10-11T06:04:39.670Z,1003.81
2018-10-11T06:05:39.659Z,1003.81
2018-10-11T06:06:39.664Z,1003.81
2018-10-11T06:07:39.640Z,1003.88
2018-10-11T06:08:39.625Z,1003.88
2018-10-11T06:09:39.616Z,1003.88
2018-10-11T06:10:39.607Z,1003.92
2018-10-11T06:11:39.609Z,1003.92
2018-10-11T06:12:39.585Z,1003.92
2018-10-11T06:13:39.577Z,1003.91
2018-10-11T06:14:39.580Z,1004.01
2018-10-11T06:15:39.550Z,1003.99
2018-10-11T06:16:39.623Z,1003.95
2018-10-11T06:17:39.564Z,1003.92
2018-10-11T06:18:39.534Z,1003.98
2018-10-11T06:19:39.506Z,1003.97
2018-10-11T06:20:39.501Z,1003.96
2018-10-11T06:21:39.486Z,1003.95
2018-10-11T06:22:39.493Z,1003.91
2018-10-11T06:23:39.463Z,1003.90
2018-10-11T06:24:39.527Z,1003.93
2018-10-11T06:25:39.447Z,1003.90
2018-10-11T06:26:39.435Z,1003.93
2018-10-11T06:27:39.447Z,1003.94
2018-10-11T06:28:39.408Z,1003.92
2018-10-11T06:29:39.396Z,1003.92
2018-10-11T06:30:39.390Z,1003.95
2018-10-11T06:31:39.379Z,1003.88
2018-10-11T06:32:39.383Z,1003.85
2018-10-11T06:33:39.357Z,1003.80
2018-10-11T06:34:39.341Z,1003.81
2018-10-11T06:35:39.334Z,1003.77
2018-10-11T06:36:39.404Z,1003.80
2018-10-11T06:37:39.348Z,1003.79
2018-10-11T06:38:39.311Z,1003.82
2018-10-11T06:39:39.288Z,1003.82
2018-10-11T06:40:39.278Z,1003.77
2018-10-11T06:41:39.304Z,1003.78
2018-10-11T06:42:39.302Z,1003.77
2018-10-11T06:43:39.266Z,1003.80
2018-10-11T06:44:39.244Z,1003.83
2018-10-11T06:45:39.233Z,1003.88
2018-10-11T06:46:39.212Z,1003.85
2018-10-11T06:47:39.221Z,1003.82
2018-10-11T06:48:39.210Z,1003.85
2018-10-11T06:49:39.181Z,1003.85
2018-10-11T06:50:39.166Z,1003.82
2018-10-11T06:51:39.156Z,1003.83
2018-10-11T06:52:39.166Z,1003.84
2018-10-11T06:53:39.138Z,1003.88
2018-10-11T06:54:39.130Z,1003.91
2018-10-11T06:55:39.124Z,1003.95
2018-10-11T06:56:39.119Z,1003.97
2018-10-11T06:57:39.135Z,1004.02
2018-10-11T06:58:39.088Z,1004.05
2018-10-11T06:59:39.075Z,1004.09
2018-10-11T07:00:39.065Z,1004.10
2018-10-11T07:01:39.081Z,1004.14
2018-10-11T07:02:39.036Z,1004.25
2018-10-11T07:03:39.041Z,1004.25
2018-10-11T07:04:39.019Z,1004.28
2018-10-11T07:05:39.024Z,1004.24
2018-10-11T07:06:38.994Z,1004.25
2018-10-11T07:07:38.988Z,1004.28
2018-10-11T07:08:38.990Z,1004.25
2018-10-11T07:09:38.960Z,1004.26
2018-10-11T07:10:38.949Z,1004.22
2018-10-11T07:11:38.949Z,1004.20
2018-10-11T07:12:38.928Z,1004.20
2018-10-11T07:13:38.944Z,1004.18
2018-10-11T07:14:38.907Z,1004.23
2018-10-11T07:15:38.895Z,1004.20
2018-10-11T07:16:38.885Z,1004.23
2018-10-11T07:17:38.873Z,1004.24
2018-10-11T07:18:38.866Z,1004.20
2018-10-11T07:19:38.875Z,1004.24
2018-10-11T07:20:38.841Z,1004.22
2018-10-11T07:21:38.829Z,1004.22
2018-10-11T07:22:38.817Z,1004.17
2018-10-11T07:23:38.807Z,1004.21
2018-10-11T07:24:38.813Z,1004.23
2018-10-11T07:25:38.785Z,1004.28
2018-10-11T07:26:38.774Z,1004.29
2018-10-11T07:27:38.763Z,1004.34
2018-10-11T07:28:38.758Z,1004.35
2018-10-11T07:29:38.771Z,1004.35
2018-10-11T07:30:38.736Z,1004.42
2018-10-11T07:31:38.733Z,1004.41
2018-10-11T07:32:38.711Z,1004.44
2018-10-11T07:33:38.719Z,1004.39
2018-10-11T07:34:38.757Z,1004.38
2018-10-11T07:35:38.692Z,1004.32
2018-10-11T07:36:38.668Z,1004.33
2018-10-11T07:37:38.652Z,1004.42
2018-10-11T07:38:38.644Z,1004.43
2018-10-11T07:39:38.633Z,1004.44
2018-10-11T07:40:38.782Z,1004.52
2018-10-11T07:41:38.610Z,1004.45
2018-10-11T07:42:38.602Z,1004.44
2018-10-11T07:43:38.588Z,1004.46
2018-10-11T07:44:38.577Z,1004.48
2018-10-11T07:45:38.598Z,1004.47
2018-10-11T07:46:38.558Z,1004.49
2018-10-11T07:47:38.553Z,1004.48
2018-10-11T07:48:38.541Z,1004.50
2018-10-11T07:49:38.526Z,1004.46
2018-10-11T07:50:38.533Z,1004.47
2018-10-11T07:51:38.524Z,1004.45
2018-10-11T07:52:38.513Z,1004.51
2018-10-11T07:53:38.476Z,1004.50
2018-10-11T07:54:38.471Z,1004.55
2018-10-11T07:55:38.458Z,1004.51
2018-10-11T07:56:38.502Z,1004.50
2018-10-11T07:57:38.431Z,1004.49
2018-10-11T07:58:38.424Z,1004.47
2018-10-11T07:59:38.436Z,1004.42
2018-10-11T08:00:38.398Z,1004.46
2018-10-11T08:01:38.444Z,1004.41
2018-10-11T08:02:38.377Z,1004.40
2018-10-11T08:03:38.473Z,1004.40
2018-10-11T08:04:38.354Z,1004.39
2018-10-11T08:05:38.353Z,1004.39
2018-10-11T08:06:38.364Z,1004.41
2018-10-11T08:07:38.356Z,1004.41
2018-10-11T08:08:38.327Z,1004.46
2018-10-11T08:09:38.298Z,1004.41
2018-10-11T08:10:38.457Z,1004.52
2018-10-11T08:11:38.479Z,1004.45
2018-10-11T08:12:38.284Z,1004.47
2018-10-11T08:13:38.292Z,1004.48
2018-10-11T08:14:38.247Z,1004.47
2018-10-11T08:15:38.234Z,1004.46
2018-10-11T08:16:38.400Z,1004.49
2018-10-11T08:17:38.691Z,1004.50
2018-10-11T08:18:38.292Z,1004.54
2018-10-11T08:19:38.203Z,1004.48
2018-10-11T08:20:38.259Z,1004.48
2018-10-11T08:21:45.934Z,1004.55
2018-10-11T08:22:38.155Z,1004.47
2018-10-11T08:23:38.167Z,1004.48
2018-10-11T08:24:38.178Z,1004.49
2018-10-11T08:25:38.560Z,1004.52
2018-10-11T08:26:38.166Z,1004.45
2018-10-11T08:27:38.097Z,1004.46
2018-10-11T08:28:38.103Z,1004.48
2018-10-11T08:29:38.079Z,1004.51
2018-10-11T08:30:38.063Z,1004.44
2018-10-11T08:31:38.121Z,1004.52
2018-10-11T08:32:38.176Z,1004.54
2018-10-11T08:33:38.054Z,1004.58
2018-10-11T08:34:38.030Z,1004.57
2018-10-11T08:35:38.009Z,1004.59
2018-10-11T08:36:37.998Z,1004.65
2018-10-11T08:37:38.071Z,1004.67
2018-10-11T08:38:38.150Z,1004.63
2018-10-11T08:39:37.971Z,1004.68
2018-10-11T08:40:37.952Z,1004.63
2018-10-11T08:41:37.941Z,1004.62
2018-10-11T08:42:37.931Z,1004.61
2018-10-11T08:43:38.037Z,1004.53
2018-10-11T08:44:37.928Z,1004.52
2018-10-11T08:45:37.904Z,1004.55
2018-10-11T08:46:37.887Z,1004.58
2018-10-11T08:47:37.875Z,1004.59
2018-10-11T08:48:37.866Z,1004.58
2018-10-11T08:49:37.885Z,1004.56
2018-10-11T08:50:37.875Z,1004.60
2018-10-11T08:51:37.831Z,1004.56
2018-10-11T08:52:37.824Z,1004.58
2018-10-11T08:53:37.881Z,1004.54
2018-10-11T08:54:37.834Z,1004.57
2018-10-11T08:55:37.949Z,1004.58
2018-10-11T08:56:37.781Z,1004.57
2018-10-11T08:57:37.766Z,1004.52
2018-10-11T08:58:37.756Z,1004.50
2018-10-11T08:59:37.853Z,1004.49
2018-10-11T09:00:37.751Z,1004.51
2018-10-11T09:01:37.725Z,1004.47
2018-10-11T09:02:37.708Z,1004.46
2018-10-11T09:03:37.818Z,1004.46
2018-10-11T09:04:37.688Z,1004.45
2018-10-11T09:05:37.696Z,1004.44
2018-10-11T09:06:37.666Z,1004.37
2018-10-11T09:07:37.653Z,1004.41
2018-10-11T09:08:37.648Z,1004.43
2018-10-11T09:09:37.650Z,1004.38
2018-10-11T09:10:38.517Z,1004.38
2018-10-11T09:11:37.611Z,1004.42
2018-10-11T09:12:37.602Z,1004.41
2018-10-11T09:13:37.592Z,1004.42
2018-10-11T09:14:37.576Z,1004.37
2018-10-11T09:15:37.593Z,1004.42
2018-10-11T09:16:37.592Z,1004.44
2018-10-11T09:17:37.543Z,1004.38
2018-10-11T09:18:37.532Z,1004.41
2018-10-11T09:19:37.524Z,1004.42
2018-10-11T09:20:37.511Z,1004.40
2018-10-11T09:21:37.520Z,1004.39
2018-10-11T09:22:37.491Z,1004.38
2018-10-11T09:23:37.480Z,1004.40
2018-10-11T09:24:37.467Z,1004.31
2018-10-11T09:25:37.716Z,1004.30
2018-10-11T09:26:37.476Z,1004.28
2018-10-11T09:27:37.437Z,1004.25
2018-10-11T09:28:37.431Z,1004.31
2018-10-11T09:29:37.413Z,1004.32
2018-10-11T09:30:37.400Z,1004.35
2018-10-11T09:31:37.411Z,1004.38
2018-10-11T09:32:37.398Z,1004.34
2018-10-11T09:33:37.371Z,1004.37
2018-10-11T09:34:37.356Z,1004.37
2018-10-11T09:35:37.344Z,1004.35
2018-10-11T09:36:37.373Z,1004.33
2018-10-11T09:37:37.324Z,1004.30
2018-10-11T09:38:37.329Z,1004.35
2018-10-11T09:39:37.314Z,1004.35
2018-10-11T09:40:37.312Z,1004.34
2018-10-11T09:41:37.311Z,1004.35
2018-10-11T09:42:37.267Z,1004.33
2018-10-11T09:43:37.257Z,1004.29
2018-10-11T09:44:37.254Z,1004.27
2018-10-11T09:45:37.234Z,1004.35
2018-10-11T09:46:37.224Z,1004.37
2018-10-11T09:47:37.231Z,1004.40
2018-10-11T09:48:37.207Z,1004.37
2018-10-11T09:49:37.194Z,1004.35
2018-10-11T09:50:37.179Z,1004.39
2018-10-11T09:51:37.170Z,1004.41
2018-10-11T09:52:37.182Z,1004.38
2018-10-11T09:53:37.147Z,1004.40
2018-10-11T09:54:37.154Z,1004.41
2018-10-11T09:55:37.124Z,1004.38
2018-10-11T09:56:37.118Z,1004.40
2018-10-11T09:57:37.142Z,1004.39
2018-10-11T09:58:37.091Z,1004.40
2018-10-11T09:59:37.080Z,1004.41
2018-10-11T10:00:37.070Z,1004.40
2018-10-11T10:01:37.058Z,1004.46
2018-10-11T10:02:37.049Z,1004.42
2018-10-11T10:03:37.061Z,1004.46
2018-10-11T10:04:37.027Z,1004.49
2018-10-11T10:05:37.016Z,1004.52
2018-10-11T10:06:37.004Z,1004.53
2018-10-11T10:07:36.993Z,1004.52
2018-10-11T10:08:37.000Z,1004.51
2018-10-11T10:09:36.971Z,1004.43
2018-10-11T10:10:36.962Z,1004.46
2018-10-11T10:11:36.949Z,1004.51
2018-10-11T10:12:36.941Z,1004.51
2018-10-11T10:13:36.955Z,1004.52
2018-10-11T10:14:36.926Z,1004.45
2018-10-11T10:15:36.935Z,1004.47
2018-10-11T10:16:36.895Z,1004.43
2018-10-11T10:17:36.882Z,1004.40
2018-10-11T10:18:36.872Z,1004.33
2018-10-11T10:19:36.877Z,1004.36
2018-10-11T10:20:36.864Z,1004.40
2018-10-11T10:21:36.852Z,1004.42
2018-10-11T10:22:36.828Z,1004.39
2018-10-11T10:23:36.827Z,1004.38
2018-10-11T10:24:36.834Z,1004.45
2018-10-11T10:25:36.846Z,1004.47
2018-10-11T10:26:36.788Z,1004.39
2018-10-11T10:27:36.772Z,1004.41
2018-10-11T10:28:36.767Z,1004.39
2018-10-11T10:29:36.780Z,1004.36
2018-10-11T10:30:36.738Z,1004.31
2018-10-11T10:31:37.189Z,1004.29
2018-10-11T10:32:36.742Z,1004.33
2018-10-11T10:33:36.713Z,1004.40
2018-10-11T10:34:36.718Z,1004.43
2018-10-11T10:35:36.706Z,1004.34
2018-10-11T10:36:36.713Z,1004.37
2018-10-11T10:37:36.663Z,1004.39
2018-10-11T10:38:36.652Z,1004.37
2018-10-11T10:39:36.641Z,1004.38
2018-10-11T10:40:36.629Z,1004.31
2018-10-11T10:41:36.621Z,1004.32
2018-10-11T10:42:36.649Z,1004.34
2018-10-11T10:43:36.609Z,1004.32
2018-10-11T10:44:36.594Z,1004.33
2018-10-11T10:45:36.578Z,1004.22
2018-10-11T10:46:36.572Z,1004.19
2018-10-11T10:47:36.576Z,1004.19
2018-10-11T10:48:36.543Z,1004.14
2018-10-11T10:49:36.539Z,1004.19
2018-10-11T10:50:36.521Z,1004.22
2018-10-11T10:51:36.508Z,1004.24
2018-10-11T10:52:36.525Z,1004.14
2018-10-11T10:53:36.489Z,1004.20
2018-10-11T10:54:36.478Z,1004.15
2018-10-11T10:55:36.482Z,1004.16
2018-10-11T10:56:36.455Z,1004.20
2018-10-11T10:57:36.463Z,1004.16
2018-10-11T10:58:36.433Z,1004.18
2018-10-11T10:59:36.435Z,1004.16
2018-10-11T11:00:36.414Z,1004.15
2018-10-11T11:01:36.410Z,1004.15
2018-10-11T11:02:36.404Z,1004.16
2018-10-11T11:03:36.379Z,1004.10
2018-10-11T11:04:36.365Z,1004.00
2018-10-11T11:05:36.355Z,1004.10
2018-10-11T11:06:36.344Z,1004.02
2018-10-11T11:07:36.363Z,1004.04
2018-10-11T11:08:36.327Z,1004.08
2018-10-11T11:09:36.312Z,1004.03
2018-10-11T11:10:36.300Z,1004.14
2018-10-11T11:11:36.295Z,1004.02
2018-10-11T11:12:36.281Z,1004.10
2018-10-11T11:13:36.287Z,1004.04
2018-10-11T11:14:36.266Z,1004.10
2018-10-11T11:15:36.245Z,1004.10
2018-10-11T11:16:36.243Z,1004.06
2018-10-11T11:17:36.246Z,1004.06
2018-10-11T11:18:36.215Z,1004.09
2018-10-11T11:19:36.202Z,1004.07
2018-10-11T11:20:36.193Z,1004.06
2018-10-11T11:21:36.181Z,1004.10
2018-10-11T11:22:36.190Z,1004.07
2018-10-11T11:23:36.162Z,1004.01
2018-10-11T11:24:36.159Z,1004.04
2018-10-11T11:25:36.135Z,1004.09
2018-10-11T11:26:36.125Z,1004.18
2018-10-11T11:27:36.145Z,1004.11
2018-10-11T11:28:36.116Z,1004.04
2018-10-11T11:29:36.094Z,1004.05
2018-10-11T11:30:36.096Z,1004.01
2018-10-11T11:31:36.070Z,1003.94
2018-10-11T11:32:36.062Z,1004.02
2018-10-11T11:33:36.073Z,1004.02
2018-10-11T11:34:36.039Z,1004.00
2018-10-11T11:35:36.030Z,1004.03
2018-10-11T11:36:36.028Z,1003.99
2018-10-11T11:37:36.006Z,1004.00
2018-10-11T11:38:36.010Z,1003.95
2018-10-11T11:39:35.982Z,1003.92
2018-10-11T11:40:35.976Z,1003.96
2018-10-11T11:41:35.966Z,1003.99
2018-10-11T11:42:35.957Z,1003.98
2018-10-11T11:43:35.979Z,1003.93
2018-10-11T11:44:35.928Z,1003.97
2018-10-11T11:45:35.920Z,1003.96
2018-10-11T11:46:35.914Z,1003.94
2018-10-11T11:47:35.901Z,1003.96
2018-10-11T11:48:35.893Z,1003.93
2018-10-11T11:49:35.892Z,1003.95
2018-10-11T11:50:35.911Z,1003.90
2018-10-11T11:51:35.852Z,1003.93
2018-10-11T11:52:35.858Z,1003.91
2018-10-11T11:53:35.834Z,1003.89
2018-10-11T11:54:35.819Z,1003.91
2018-10-11T11:55:35.809Z,1003.91
2018-10-11T11:56:35.802Z,1003.84
2018-10-11T11:57:35.817Z,1003.95
2018-10-11T11:58:35.776Z,1003.90
2018-10-11T11:59:35.766Z,1003.98
2018-10-11T12:00:35.754Z,1003.87
2018-10-11T12:01:35.745Z,1003.97
2018-10-11T12:02:35.746Z,1003.92
2018-10-11T12:03:35.738Z,1003.91
2018-10-11T12:04:35.711Z,1003.84
2018-10-11T12:05:35.701Z,1003.88